Presidente Tancredo Neves, Brazil
Current Conditions -  °F | °C
As of 9:00 AM on Thursday 18 Dec 2014 (Local Time) from SBSV Reporting Station
Light Rain Light Rain  
Wind Chill: 75°   Ceiling: 900
Heat Index: 75°   Visibility: 3mi
Dew Point: 72°   Wind: 6mph
Humidity: 89%   Direction: 10°N
Pressure: 29.94"   Gusts: NA
Location:  13.45°S, 39.42°W
Report Text: SBSV 181200Z 01005KT 5000 -RA BR BKN009 FEW020TCU BKN070 24/22 Q1014
Loading
Personal Weather Stations






























Interactive Weather Map New forecast layout! Learn more

10-Day Weather Forecast

Advertisements
Track Severe Weather on mobile